sensor_id;sensor_type;location;lat;lon;timestamp;P1;durP1;ratioP1;P2;durP2;ratioP2
21192;SDS011;10754;51.106;7.164;2023-05-10T00:01:03;5.00;;;4.55;;
21192;SDS011;10754;51.106;7.164;2023-05-10T00:03:28;5.00;;;4.60;;
21192;SDS011;10754;51.106;7.164;2023-05-10T00:05:54;4.75;;;4.25;;
21192;SDS011;10754;51.106;7.164;2023-05-10T00:08:19;5.07;;;4.68;;
21192;SDS011;10754;51.106;7.164;2023-05-10T00:10:45;5.18;;;4.65;;
21192;SDS011;10754;51.106;7.164;2023-05-10T00:13:10;5.80;;;5.28;;
21192;SDS011;10754;51.106;7.164;2023-05-10T00:15:36;4.80;;;4.40;;
21192;SDS011;10754;51.106;7.164;2023-05-10T00:18:01;5.82;;;5.10;;
21192;SDS011;10754;51.106;7.164;2023-05-10T00:20:27;4.90;;;4.50;;
21192;SDS011;10754;51.106;7.164;2023-05-10T00:22:52;6.13;;;4.53;;
21192;SDS011;10754;51.106;7.164;2023-05-10T00:25:18;8.55;;;4.97;;
21192;SDS011;10754;51.106;7.164;2023-05-10T00:27:43;5.57;;;5.07;;
21192;SDS011;10754;51.106;7.164;2023-05-10T00:30:09;5.38;;;4.88;;
21192;SDS011;10754;51.106;7.164;2023-05-10T00:32:35;4.93;;;4.47;;
21192;SDS011;10754;51.106;7.164;2023-05-10T00:35:00;5.25;;;4.85;;
21192;SDS011;10754;51.106;7.164;2023-05-10T00:37:26;5.65;;;5.07;;
21192;SDS011;10754;51.106;7.164;2023-05-10T00:39:51;5.80;;;5.40;;
21192;SDS011;10754;51.106;7.164;2023-05-10T00:42:17;6.50;;;5.90;;
21192;SDS011;10754;51.106;7.164;2023-05-10T00:44:42;5.50;;;5.10;;
21192;SDS011;10754;51.106;7.164;2023-05-10T00:47:08;6.22;;;5.78;;
21192;SDS011;10754;51.106;7.164;2023-05-10T00:49:34;6.20;;;5.70;;
21192;SDS011;10754;51.106;7.164;2023-05-10T00:52:00;6.10;;;5.55;;
21192;SDS011;10754;51.106;7.164;2023-05-10T00:54:27;6.18;;;5.68;;
21192;SDS011;10754;51.106;7.164;2023-05-10T00:56:52;6.32;;;5.72;;
21192;SDS011;10754;51.106;7.164;2023-05-10T00:59:18;6.50;;;6.00;;
21192;SDS011;10754;51.106;7.164;2023-05-10T01:01:47;6.82;;;6.18;;
21192;SDS011;10754;51.106;7.164;2023-05-10T01:04:13;6.15;;;5.72;;
21192;SDS011;10754;51.106;7.164;2023-05-10T01:06:39;6.28;;;5.78;;
21192;SDS011;10754;51.106;7.164;2023-05-10T01:09:05;6.72;;;6.03;;
21192;SDS011;10754;51.106;7.164;2023-05-10T01:11:32;7.97;;;6.05;;
21192;SDS011;10754;51.106;7.164;2023-05-10T01:13:59;7.32;;;6.78;;
21192;SDS011;10754;51.106;7.164;2023-05-10T01:16:25;6.90;;;6.18;;
21192;SDS011;10754;51.106;7.164;2023-05-10T01:18:51;6.65;;;6.15;;
21192;SDS011;10754;51.106;7.164;2023-05-10T01:24:17;6.60;;;6.10;;
21192;SDS011;10754;51.106;7.164;2023-05-10T01:27:30;6.15;;;5.65;;
21192;SDS011;10754;51.106;7.164;2023-05-10T01:33:15;6.28;;;5.78;;
21192;SDS011;10754;51.106;7.164;2023-05-10T01:36:02;7.15;;;6.45;;
21192;SDS011;10754;51.106;7.164;2023-05-10T01:38:49;8.50;;;6.45;;
21192;SDS011;10754;51.106;7.164;2023-05-10T01:41:39;6.20;;;5.63;;
21192;SDS011;10754;51.106;7.164;2023-05-10T01:47:25;6.05;;;5.55;;
21192;SDS011;10754;51.106;7.164;2023-05-10T01:49:53;7.05;;;6.32;;
21192;SDS011;10754;51.106;7.164;2023-05-10T01:52:22;6.47;;;5.88;;
21192;SDS011;10754;51.106;7.164;2023-05-10T01:54:55;6.63;;;6.10;;
21192;SDS011;10754;51.106;7.164;2023-05-10T01:57:27;8.00;;;5.80;;
21192;SDS011;10754;51.106;7.164;2023-05-10T02:00:00;6.03;;;5.53;;
21192;SDS011;10754;51.106;7.164;2023-05-10T02:02:33;6.32;;;5.75;;
21192;SDS011;10754;51.106;7.164;2023-05-10T02:05:02;7.25;;;5.63;;
21192;SDS011;10754;51.106;7.164;2023-05-10T02:07:30;6.72;;;5.38;;
21192;SDS011;10754;51.106;7.164;2023-05-10T02:09:57;4.30;;;3.80;;
21192;SDS011;10754;51.106;7.164;2023-05-10T02:12:24;4.10;;;3.80;;
21192;SDS011;10754;51.106;7.164;2023-05-10T02:14:52;3.78;;;3.47;;
21192;SDS011;10754;51.106;7.164;2023-05-10T02:17:18;3.67;;;3.20;;
21192;SDS011;10754;51.106;7.164;2023-05-10T02:19:45;3.28;;;3.08;;
21192;SDS011;10754;51.106;7.164;2023-05-10T02:22:12;4.50;;;2.75;;
21192;SDS011;10754;51.106;7.164;2023-05-10T02:24:40;4.85;;;2.80;;
21192;SDS011;10754;51.106;7.164;2023-05-10T02:27:06;2.90;;;2.70;;
21192;SDS011;10754;51.106;7.164;2023-05-10T02:29:34;2.78;;;2.58;;
21192;SDS011;10754;51.106;7.164;2023-05-10T02:32:01;2.58;;;2.38;;
21192;SDS011;10754;51.106;7.164;2023-05-10T02:34:28;5.95;;;2.40;;
21192;SDS011;10754;51.106;7.164;2023-05-10T02:36:55;2.28;;;2.08;;
21192;SDS011;10754;51.106;7.164;2023-05-10T02:39:21;2.15;;;1.95;;
21192;SDS011;10754;51.106;7.164;2023-05-10T02:41:49;2.65;;;2.38;;
21192;SDS011;10754;51.106;7.164;2023-05-10T02:44:17;2.40;;;2.13;;
21192;SDS011;10754;51.106;7.164;2023-05-10T02:46:44;3.83;;;2.25;;
21192;SDS011;10754;51.106;7.164;2023-05-10T02:49:10;2.50;;;2.30;;
21192;SDS011;10754;51.106;7.164;2023-05-10T02:51:37;3.22;;;2.38;;
21192;SDS011;10754;51.106;7.164;2023-05-10T02:54:27;2.63;;;2.38;;
21192;SDS011;10754;51.106;7.164;2023-05-10T02:56:57;3.47;;;2.58;;
21192;SDS011;10754;51.106;7.164;2023-05-10T02:59:27;2.80;;;2.35;;
21192;SDS011;10754;51.106;7.164;2023-05-10T03:01:53;5.13;;;2.97;;
21192;SDS011;10754;51.106;7.164;2023-05-10T03:04:18;6.07;;;3.03;;
21192;SDS011;10754;51.106;7.164;2023-05-10T03:06:44;3.08;;;2.83;;
21192;SDS011;10754;51.106;7.164;2023-05-10T03:09:10;7.22;;;3.97;;
21192;SDS011;10754;51.106;7.164;2023-05-10T03:11:55;6.95;;;3.78;;
21192;SDS011;10754;51.106;7.164;2023-05-10T03:14:57;3.88;;;3.50;;
21192;SDS011;10754;51.106;7.164;2023-05-10T03:17:35;30.58;;;5.22;;
21192;SDS011;10754;51.106;7.164;2023-05-10T03:20:09;11.52;;;3.70;;
21192;SDS011;10754;51.106;7.164;2023-05-10T03:22:38;3.83;;;3.53;;
21192;SDS011;10754;51.106;7.164;2023-05-10T03:25:08;5.53;;;4.13;;
21192;SDS011;10754;51.106;7.164;2023-05-10T03:27:36;5.45;;;3.92;;
21192;SDS011;10754;51.106;7.164;2023-05-10T03:30:05;5.88;;;5.38;;
21192;SDS011;10754;51.106;7.164;2023-05-10T03:32:32;4.80;;;4.28;;
21192;SDS011;10754;51.106;7.164;2023-05-10T03:34:59;4.40;;;4.10;;
21192;SDS011;10754;51.106;7.164;2023-05-10T03:37:25;4.80;;;4.40;;
21192;SDS011;10754;51.106;7.164;2023-05-10T03:39:50;8.57;;;4.50;;
21192;SDS011;10754;51.106;7.164;2023-05-10T03:42:16;5.93;;;4.78;;
21192;SDS011;10754;51.106;7.164;2023-05-10T03:44:42;4.68;;;4.25;;
21192;SDS011;10754;51.106;7.164;2023-05-10T03:47:08;5.53;;;4.85;;
21192;SDS011;10754;51.106;7.164;2023-05-10T03:49:33;5.97;;;5.38;;
21192;SDS011;10754;51.106;7.164;2023-05-10T03:51:59;5.47;;;5.07;;
21192;SDS011;10754;51.106;7.164;2023-05-10T03:54:24;5.45;;;4.90;;
21192;SDS011;10754;51.106;7.164;2023-05-10T03:56:50;5.85;;;5.32;;
21192;SDS011;10754;51.106;7.164;2023-05-10T03:59:16;5.68;;;4.82;;
21192;SDS011;10754;51.106;7.164;2023-05-10T04:01:41;4.97;;;4.57;;
21192;SDS011;10754;51.106;7.164;2023-05-10T04:04:07;5.75;;;5.25;;
21192;SDS011;10754;51.106;7.164;2023-05-10T04:06:32;5.25;;;4.63;;
21192;SDS011;10754;51.106;7.164;2023-05-10T04:08:58;5.70;;;5.18;;
21192;SDS011;10754;51.106;7.164;2023-05-10T04:11:29;5.35;;;4.95;;
21192;SDS011;10754;51.106;7.164;2023-05-10T04:13:54;7.47;;;5.30;;
21192;SDS011;10754;51.106;7.164;2023-05-10T04:16:20;5.10;;;4.68;;
21192;SDS011;10754;51.106;7.164;2023-05-10T04:18:45;5.65;;;5.15;;
21192;SDS011;10754;51.106;7.164;2023-05-10T04:21:11;4.90;;;4.50;;
21192;SDS011;10754;51.106;7.164;2023-05-10T04:23:38;5.78;;;5.28;;
21192;SDS011;10754;51.106;7.164;2023-05-10T04:26:03;4.63;;;4.22;;
21192;SDS011;10754;51.106;7.164;2023-05-10T04:28:29;5.32;;;4.90;;
21192;SDS011;10754;51.106;7.164;2023-05-10T04:31:01;5.72;;;5.07;;
21192;SDS011;10754;51.106;7.164;2023-05-10T04:33:31;6.22;;;4.97;;
21192;SDS011;10754;51.106;7.164;2023-05-10T04:35:57;5.25;;;4.85;;
21192;SDS011;10754;51.106;7.164;2023-05-10T04:38:23;5.93;;;5.32;;
21192;SDS011;10754;51.106;7.164;2023-05-10T04:40:49;5.93;;;5.43;;
21192;SDS011;10754;51.106;7.164;2023-05-10T04:43:15;5.60;;;5.10;;
21192;SDS011;10754;51.106;7.164;2023-05-10T04:45:40;5.68;;;5.20;;
21192;SDS011;10754;51.106;7.164;2023-05-10T04:48:06;6.57;;;5.38;;
21192;SDS011;10754;51.106;7.164;2023-05-10T04:50:32;8.75;;;5.10;;
21192;SDS011;10754;51.106;7.164;2023-05-10T04:52:58;6.53;;;5.90;;
21192;SDS011;10754;51.106;7.164;2023-05-10T04:55:24;6.72;;;5.78;;
21192;SDS011;10754;51.106;7.164;2023-05-10T04:57:49;7.20;;;6.50;;
21192;SDS011;10754;51.106;7.164;2023-05-10T05:00:15;6.82;;;6.22;;
21192;SDS011;10754;51.106;7.164;2023-05-10T05:02:44;6.80;;;6.20;;
21192;SDS011;10754;51.106;7.164;2023-05-10T05:05:10;7.53;;;6.53;;
21192;SDS011;10754;51.106;7.164;2023-05-10T05:07:36;8.25;;;6.88;;
21192;SDS011;10754;51.106;7.164;2023-05-10T05:10:03;7.10;;;6.43;;
21192;SDS011;10754;51.106;7.164;2023-05-10T05:12:32;7.85;;;7.13;;
21192;SDS011;10754;51.106;7.164;2023-05-10T05:14:58;8.27;;;7.47;;
21192;SDS011;10754;51.106;7.164;2023-05-10T05:17:23;7.93;;;7.13;;
21192;SDS011;10754;51.106;7.164;2023-05-10T05:19:49;9.98;;;7.80;;
21192;SDS011;10754;51.106;7.164;2023-05-10T05:22:15;9.45;;;8.55;;
21192;SDS011;10754;51.106;7.164;2023-05-10T05:24:40;9.18;;;8.38;;
21192;SDS011;10754;51.106;7.164;2023-05-10T05:27:06;8.50;;;7.68;;
21192;SDS011;10754;51.106;7.164;2023-05-10T05:29:32;8.80;;;8.00;;
21192;SDS011;10754;51.106;7.164;2023-05-10T05:31:58;8.55;;;7.75;;
21192;SDS011;10754;51.106;7.164;2023-05-10T05:34:24;8.68;;;7.88;;
21192;SDS011;10754;51.106;7.164;2023-05-10T05:36:50;8.13;;;7.32;;
21192;SDS011;10754;51.106;7.164;2023-05-10T05:39:15;8.52;;;7.35;;
21192;SDS011;10754;51.106;7.164;2023-05-10T05:41:41;7.88;;;6.90;;
21192;SDS011;10754;51.106;7.164;2023-05-10T05:44:07;7.78;;;7.07;;
21192;SDS011;10754;51.106;7.164;2023-05-10T05:46:33;7.47;;;6.80;;
21192;SDS011;10754;51.106;7.164;2023-05-10T05:48:58;9.02;;;7.50;;
21192;SDS011;10754;51.106;7.164;2023-05-10T05:51:24;7.88;;;7.18;;
21192;SDS011;10754;51.106;7.164;2023-05-10T05:53:50;7.70;;;6.82;;
21192;SDS011;10754;51.106;7.164;2023-05-10T05:56:15;7.82;;;6.90;;
21192;SDS011;10754;51.106;7.164;2023-05-10T05:58:42;7.82;;;6.80;;
21192;SDS011;10754;51.106;7.164;2023-05-10T06:01:08;7.65;;;6.63;;
21192;SDS011;10754;51.106;7.164;2023-05-10T06:03:34;6.70;;;6.05;;
21192;SDS011;10754;51.106;7.164;2023-05-10T06:05:59;7.43;;;6.38;;
21192;SDS011;10754;51.106;7.164;2023-05-10T06:08:25;9.02;;;6.35;;
21192;SDS011;10754;51.106;7.164;2023-05-10T06:10:50;7.65;;;6.80;;
21192;SDS011;10754;51.106;7.164;2023-05-10T06:13:16;7.88;;;6.00;;
21192;SDS011;10754;51.106;7.164;2023-05-10T06:15:41;8.50;;;6.85;;
21192;SDS011;10754;51.106;7.164;2023-05-10T06:18:07;7.25;;;6.50;;
21192;SDS011;10754;51.106;7.164;2023-05-10T06:20:32;7.82;;;7.13;;
21192;SDS011;10754;51.106;7.164;2023-05-10T06:22:58;8.57;;;7.00;;
21192;SDS011;10754;51.106;7.164;2023-05-10T06:25:23;7.90;;;6.95;;
21192;SDS011;10754;51.106;7.164;2023-05-10T06:27:49;8.23;;;7.40;;
21192;SDS011;10754;51.106;7.164;2023-05-10T06:30:15;9.60;;;8.00;;
21192;SDS011;10754;51.106;7.164;2023-05-10T06:32:41;8.63;;;7.75;;
21192;SDS011;10754;51.106;7.164;2023-05-10T06:35:08;8.57;;;7.68;;
21192;SDS011;10754;51.106;7.164;2023-05-10T06:37:34;8.40;;;7.43;;
21192;SDS011;10754;51.106;7.164;2023-05-10T06:40:00;9.30;;;7.53;;
21192;SDS011;10754;51.106;7.164;2023-05-10T06:42:25;8.57;;;7.78;;
21192;SDS011;10754;51.106;7.164;2023-05-10T06:44:52;11.85;;;8.52;;
21192;SDS011;10754;51.106;7.164;2023-05-10T06:47:18;9.13;;;8.07;;
21192;SDS011;10754;51.106;7.164;2023-05-10T06:49:43;9.75;;;7.40;;
21192;SDS011;10754;51.106;7.164;2023-05-10T06:52:09;8.63;;;7.63;;
21192;SDS011;10754;51.106;7.164;2023-05-10T06:54:34;11.32;;;8.35;;
21192;SDS011;10754;51.106;7.164;2023-05-10T06:57:00;9.48;;;7.82;;
21192;SDS011;10754;51.106;7.164;2023-05-10T06:59:25;8.90;;;7.97;;
21192;SDS011;10754;51.106;7.164;2023-05-10T07:01:51;8.38;;;7.55;;
21192;SDS011;10754;51.106;7.164;2023-05-10T07:04:16;10.48;;;8.38;;
21192;SDS011;10754;51.106;7.164;2023-05-10T07:06:42;9.27;;;8.35;;
21192;SDS011;10754;51.106;7.164;2023-05-10T07:09:08;8.50;;;7.63;;
21192;SDS011;10754;51.106;7.164;2023-05-10T07:11:34;9.50;;;8.00;;
21192;SDS011;10754;51.106;7.164;2023-05-10T07:13:59;10.75;;;7.75;;
21192;SDS011;10754;51.106;7.164;2023-05-10T07:16:25;13.90;;;8.05;;
21192;SDS011;10754;51.106;7.164;2023-05-10T07:18:51;8.85;;;7.95;;
21192;SDS011;10754;51.106;7.164;2023-05-10T07:21:17;9.43;;;8.48;;
21192;SDS011;10754;51.106;7.164;2023-05-10T07:23:43;9.20;;;8.30;;
21192;SDS011;10754;51.106;7.164;2023-05-10T07:26:08;9.90;;;7.93;;
21192;SDS011;10754;51.106;7.164;2023-05-10T07:28:35;9.40;;;7.38;;
21192;SDS011;10754;51.106;7.164;2023-05-10T07:31:02;10.10;;;9.07;;
21192;SDS011;10754;51.106;7.164;2023-05-10T07:33:27;9.15;;;8.15;;
21192;SDS011;10754;51.106;7.164;2023-05-10T07:35:53;8.75;;;7.88;;
21192;SDS011;10754;51.106;7.164;2023-05-10T07:38:18;8.60;;;7.55;;
21192;SDS011;10754;51.106;7.164;2023-05-10T07:40:44;11.25;;;7.78;;
21192;SDS011;10754;51.106;7.164;2023-05-10T07:43:09;8.45;;;7.65;;
21192;SDS011;10754;51.106;7.164;2023-05-10T07:45:35;8.40;;;7.60;;
21192;SDS011;10754;51.106;7.164;2023-05-10T07:48:00;7.82;;;7.13;;
21192;SDS011;10754;51.106;7.164;2023-05-10T07:50:26;8.38;;;7.50;;
21192;SDS011;10754;51.106;7.164;2023-05-10T07:52:51;8.88;;;7.93;;
21192;SDS011;10754;51.106;7.164;2023-05-10T07:55:17;10.13;;;8.38;;
21192;SDS011;10754;51.106;7.164;2023-05-10T07:57:43;8.88;;;8.05;;
21192;SDS011;10754;51.106;7.164;2023-05-10T08:00:11;8.50;;;7.35;;
21192;SDS011;10754;51.106;7.164;2023-05-10T08:02:38;8.82;;;7.93;;
21192;SDS011;10754;51.106;7.164;2023-05-10T08:05:03;9.55;;;8.10;;
21192;SDS011;10754;51.106;7.164;2023-05-10T08:07:30;9.07;;;8.18;;
21192;SDS011;10754;51.106;7.164;2023-05-10T08:09:55;10.73;;;8.82;;
21192;SDS011;10754;51.106;7.164;2023-05-10T08:12:21;9.23;;;8.23;;
21192;SDS011;10754;51.106;7.164;2023-05-10T08:14:46;9.40;;;8.50;;
21192;SDS011;10754;51.106;7.164;2023-05-10T08:17:12;9.63;;;8.63;;
21192;SDS011;10754;51.106;7.164;2023-05-10T08:19:37;8.65;;;7.85;;
21192;SDS011;10754;51.106;7.164;2023-05-10T08:22:03;10.90;;;8.48;;
21192;SDS011;10754;51.106;7.164;2023-05-10T08:24:28;10.50;;;9.50;;
21192;SDS011;10754;51.106;7.164;2023-05-10T08:26:54;10.05;;;8.82;;
21192;SDS011;10754;51.106;7.164;2023-05-10T08:29:19;12.23;;;9.23;;
21192;SDS011;10754;51.106;7.164;2023-05-10T08:31:45;9.95;;;8.95;;
21192;SDS011;10754;51.106;7.164;2023-05-10T08:34:10;10.48;;;8.68;;
21192;SDS011;10754;51.106;7.164;2023-05-10T08:36:36;9.70;;;8.50;;
21192;SDS011;10754;51.106;7.164;2023-05-10T08:39:02;9.80;;;8.82;;
21192;SDS011;10754;51.106;7.164;2023-05-10T08:41:27;8.73;;;7.93;;
21192;SDS011;10754;51.106;7.164;2023-05-10T08:43:55;9.52;;;8.63;;
21192;SDS011;10754;51.106;7.164;2023-05-10T08:46:21;9.10;;;8.30;;
21192;SDS011;10754;51.106;7.164;2023-05-10T08:48:49;9.10;;;8.20;;
21192;SDS011;10754;51.106;7.164;2023-05-10T08:51:19;8.73;;;7.85;;
21192;SDS011;10754;51.106;7.164;2023-05-10T08:53:48;7.82;;;7.13;;
21192;SDS011;10754;51.106;7.164;2023-05-10T08:56:15;9.57;;;8.02;;
21192;SDS011;10754;51.106;7.164;2023-05-10T08:58:40;10.40;;;8.25;;
21192;SDS011;10754;51.106;7.164;2023-05-10T09:01:06;9.52;;;8.57;;
21192;SDS011;10754;51.106;7.164;2023-05-10T09:03:33;8.70;;;7.80;;
21192;SDS011;10754;51.106;7.164;2023-05-10T09:05:59;8.45;;;7.65;;
21192;SDS011;10754;51.106;7.164;2023-05-10T09:08:25;9.30;;;8.35;;
21192;SDS011;10754;51.106;7.164;2023-05-10T09:10:51;7.82;;;7.13;;
21192;SDS011;10754;51.106;7.164;2023-05-10T09:13:17;9.15;;;8.25;;
21192;SDS011;10754;51.106;7.164;2023-05-10T09:15:44;9.02;;;8.13;;
21192;SDS011;10754;51.106;7.164;2023-05-10T09:18:10;9.45;;;8.55;;
21192;SDS011;10754;51.106;7.164;2023-05-10T09:20:36;9.15;;;8.02;;
21192;SDS011;10754;51.106;7.164;2023-05-10T09:23:02;9.18;;;8.25;;
21192;SDS011;10754;51.106;7.164;2023-05-10T09:25:27;8.98;;;8.00;;
21192;SDS011;10754;51.106;7.164;2023-05-10T09:27:53;10.38;;;8.95;;
21192;SDS011;10754;51.106;7.164;2023-05-10T09:30:24;10.05;;;8.82;;
21192;SDS011;10754;51.106;7.164;2023-05-10T09:32:51;10.02;;;9.13;;
21192;SDS011;10754;51.106;7.164;2023-05-10T09:35:18;10.18;;;9.13;;
21192;SDS011;10754;51.106;7.164;2023-05-10T09:37:46;11.15;;;10.10;;
21192;SDS011;10754;51.106;7.164;2023-05-10T09:40:15;11.80;;;10.60;;
21192;SDS011;10754;51.106;7.164;2023-05-10T09:43:16;13.13;;;11.02;;
21192;SDS011;10754;51.106;7.164;2023-05-10T09:45:42;11.68;;;10.57;;
21192;SDS011;10754;51.106;7.164;2023-05-10T09:48:07;13.43;;;10.80;;
21192;SDS011;10754;51.106;7.164;2023-05-10T09:50:33;12.77;;;11.45;;
21192;SDS011;10754;51.106;7.164;2023-05-10T09:53:00;12.10;;;10.90;;
21192;SDS011;10754;51.106;7.164;2023-05-10T09:58:14;13.43;;;12.02;;
21192;SDS011;10754;51.106;7.164;2023-05-10T10:00:40;13.73;;;12.27;;
21192;SDS011;10754;51.106;7.164;2023-05-10T10:03:16;14.65;;;13.10;;
21192;SDS011;10754;51.106;7.164;2023-05-10T10:05:43;14.70;;;13.10;;
21192;SDS011;10754;51.106;7.164;2023-05-10T10:08:11;14.90;;;13.43;;
21192;SDS011;10754;51.106;7.164;2023-05-10T10:10:37;15.80;;;14.20;;
21192;SDS011;10754;51.106;7.164;2023-05-10T10:13:05;16.38;;;14.68;;
21192;SDS011;10754;51.106;7.164;2023-05-10T10:15:31;16.38;;;14.50;;
21192;SDS011;10754;51.106;7.164;2023-05-10T10:17:58;16.90;;;14.23;;
21192;SDS011;10754;51.106;7.164;2023-05-10T10:20:26;17.35;;;14.70;;
21192;SDS011;10754;51.106;7.164;2023-05-10T10:22:53;15.20;;;13.52;;
21192;SDS011;10754;51.106;7.164;2023-05-10T10:25:19;16.90;;;14.82;;
21192;SDS011;10754;51.106;7.164;2023-05-10T10:35:52;15.02;;;13.40;;
21192;SDS011;10754;51.106;7.164;2023-05-10T10:38:18;14.55;;;13.00;;
21192;SDS011;10754;51.106;7.164;2023-05-10T10:40:43;14.85;;;13.10;;
21192;SDS011;10754;51.106;7.164;2023-05-10T10:43:22;13.73;;;12.40;;
21192;SDS011;10754;51.106;7.164;2023-05-10T10:48:49;14.40;;;12.93;;
21192;SDS011;10754;51.106;7.164;2023-05-10T10:51:16;14.30;;;12.82;;
21192;SDS011;10754;51.106;7.164;2023-05-10T10:53:42;12.98;;;11.57;;
21192;SDS011;10754;51.106;7.164;2023-05-10T10:56:08;13.95;;;12.07;;
21192;SDS011;10754;51.106;7.164;2023-05-10T10:58:36;13.57;;;12.27;;
21192;SDS011;10754;51.106;7.164;2023-05-10T11:01:13;13.80;;;12.50;;
21192;SDS011;10754;51.106;7.164;2023-05-10T11:03:40;14.00;;;12.50;;
21192;SDS011;10754;51.106;7.164;2023-05-10T11:06:28;13.55;;;12.25;;
21192;SDS011;10754;51.106;7.164;2023-05-10T11:08:58;12.68;;;11.38;;
21192;SDS011;10754;51.106;7.164;2023-05-10T11:11:24;13.38;;;12.00;;
21192;SDS011;10754;51.106;7.164;2023-05-10T11:13:50;13.00;;;11.68;;
21192;SDS011;10754;51.106;7.164;2023-05-10T11:16:17;14.23;;;12.73;;
21192;SDS011;10754;51.106;7.164;2023-05-10T11:18:54;13.38;;;12.05;;
21192;SDS011;10754;51.106;7.164;2023-05-10T11:21:32;13.32;;;11.93;;
21192;SDS011;10754;51.106;7.164;2023-05-10T11:23:59;13.48;;;12.18;;
21192;SDS011;10754;51.106;7.164;2023-05-10T11:26:29;12.82;;;11.52;;
21192;SDS011;10754;51.106;7.164;2023-05-10T11:28:56;13.68;;;12.38;;
21192;SDS011;10754;51.106;7.164;2023-05-10T11:31:23;13.18;;;11.88;;
21192;SDS011;10754;51.106;7.164;2023-05-10T11:33:52;14.35;;;11.77;;
21192;SDS011;10754;51.106;7.164;2023-05-10T11:36:29;13.40;;;12.02;;
21192;SDS011;10754;51.106;7.164;2023-05-10T11:38:57;12.75;;;11.45;;
21192;SDS011;10754;51.106;7.164;2023-05-10T11:41:23;13.20;;;11.93;;
21192;SDS011;10754;51.106;7.164;2023-05-10T11:43:50;12.15;;;10.95;;
21192;SDS011;10754;51.106;7.164;2023-05-10T11:46:18;12.68;;;11.40;;
21192;SDS011;10754;51.106;7.164;2023-05-10T11:48:45;11.63;;;10.52;;
21192;SDS011;10754;51.106;7.164;2023-05-10T11:51:14;12.13;;;10.90;;
21192;SDS011;10754;51.106;7.164;2023-05-10T11:53:39;13.27;;;10.82;;
21192;SDS011;10754;51.106;7.164;2023-05-10T11:56:05;11.88;;;10.52;;
21192;SDS011;10754;51.106;7.164;2023-05-10T11:58:32;12.32;;;11.20;;
21192;SDS011;10754;51.106;7.164;2023-05-10T12:00:59;13.60;;;12.20;;
21192;SDS011;10754;51.106;7.164;2023-05-10T12:03:25;12.23;;;11.02;;
21192;SDS011;10754;51.106;7.164;2023-05-10T12:05:51;11.98;;;10.77;;
21192;SDS011;10754;51.106;7.164;2023-05-10T12:08:20;12.45;;;11.25;;
21192;SDS011;10754;51.106;7.164;2023-05-10T12:10:47;11.45;;;10.35;;
21192;SDS011;10754;51.106;7.164;2023-05-10T12:13:12;10.52;;;9.40;;
21192;SDS011;10754;51.106;7.164;2023-05-10T12:15:39;9.75;;;8.75;;
21192;SDS011;10754;51.106;7.164;2023-05-10T12:18:05;8.48;;;7.60;;
21192;SDS011;10754;51.106;7.164;2023-05-10T12:20:33;7.57;;;6.85;;
21192;SDS011;10754;51.106;7.164;2023-05-10T12:22:58;7.78;;;6.97;;
21192;SDS011;10754;51.106;7.164;2023-05-10T12:25:29;7.80;;;7.00;;
21192;SDS011;10754;51.106;7.164;2023-05-10T12:27:57;8.73;;;6.97;;
21192;SDS011;10754;51.106;7.164;2023-05-10T12:30:26;8.10;;;7.40;;
21192;SDS011;10754;51.106;7.164;2023-05-10T12:32:53;9.55;;;7.65;;
21192;SDS011;10754;51.106;7.164;2023-05-10T12:35:24;8.73;;;7.90;;
21192;SDS011;10754;51.106;7.164;2023-05-10T12:37:52;7.30;;;6.60;;
21192;SDS011;10754;51.106;7.164;2023-05-10T12:40:18;7.85;;;7.07;;
21192;SDS011;10754;51.106;7.164;2023-05-10T12:42:43;8.15;;;7.35;;
21192;SDS011;10754;51.106;7.164;2023-05-10T12:45:10;8.00;;;7.22;;
21192;SDS011;10754;51.106;7.164;2023-05-10T12:47:36;7.53;;;6.82;;
21192;SDS011;10754;51.106;7.164;2023-05-10T12:50:02;6.65;;;6.05;;
21192;SDS011;10754;51.106;7.164;2023-05-10T12:52:29;7.07;;;6.38;;
21192;SDS011;10754;51.106;7.164;2023-05-10T12:54:56;6.68;;;6.07;;
21192;SDS011;10754;51.106;7.164;2023-05-10T12:57:22;6.38;;;5.78;;
21192;SDS011;10754;51.106;7.164;2023-05-10T12:59:48;7.13;;;6.53;;
21192;SDS011;10754;51.106;7.164;2023-05-10T13:02:13;6.95;;;6.25;;
21192;SDS011;10754;51.106;7.164;2023-05-10T13:04:40;6.53;;;5.93;;
21192;SDS011;10754;51.106;7.164;2023-05-10T13:07:06;7.20;;;5.75;;
21192;SDS011;10754;51.106;7.164;2023-05-10T13:09:32;6.85;;;6.25;;
21192;SDS011;10754;51.106;7.164;2023-05-10T13:11:58;6.85;;;6.18;;
21192;SDS011;10754;51.106;7.164;2023-05-10T13:14:23;6.40;;;5.82;;
21192;SDS011;10754;51.106;7.164;2023-05-10T13:16:49;6.50;;;5.90;;
21192;SDS011;10754;51.106;7.164;2023-05-10T13:19:15;6.85;;;6.15;;
21192;SDS011;10754;51.106;7.164;2023-05-10T13:21:41;5.57;;;5.07;;
21192;SDS011;10754;51.106;7.164;2023-05-10T13:24:09;6.65;;;6.05;;
21192;SDS011;10754;51.106;7.164;2023-05-10T13:26:35;6.45;;;5.88;;
21192;SDS011;10754;51.106;7.164;2023-05-10T13:29:01;6.07;;;5.57;;
21192;SDS011;10754;51.106;7.164;2023-05-10T13:31:27;6.57;;;5.90;;
21192;SDS011;10754;51.106;7.164;2023-05-10T13:33:52;6.57;;;5.95;;
21192;SDS011;10754;51.106;7.164;2023-05-10T13:36:18;8.05;;;5.88;;
21192;SDS011;10754;51.106;7.164;2023-05-10T13:38:43;6.85;;;6.18;;
21192;SDS011;10754;51.106;7.164;2023-05-10T13:41:09;7.20;;;6.60;;
21192;SDS011;10754;51.106;7.164;2023-05-10T13:43:35;7.28;;;6.38;;
21192;SDS011;10754;51.106;7.164;2023-05-10T13:46:01;7.93;;;7.18;;
21192;SDS011;10754;51.106;7.164;2023-05-10T13:48:26;8.25;;;7.55;;
21192;SDS011;10754;51.106;7.164;2023-05-10T13:50:52;8.25;;;7.50;;
21192;SDS011;10754;51.106;7.164;2023-05-10T13:53:17;9.38;;;7.75;;
21192;SDS011;10754;51.106;7.164;2023-05-10T13:55:43;8.40;;;7.65;;
21192;SDS011;10754;51.106;7.164;2023-05-10T13:58:09;9.13;;;8.07;;
21192;SDS011;10754;51.106;7.164;2023-05-10T14:00:34;8.98;;;8.07;;
21192;SDS011;10754;51.106;7.164;2023-05-10T14:03:00;9.48;;;8.68;;
21192;SDS011;10754;51.106;7.164;2023-05-10T14:05:25;9.23;;;8.18;;
21192;SDS011;10754;51.106;7.164;2023-05-10T14:07:51;8.73;;;7.93;;
21192;SDS011;10754;51.106;7.164;2023-05-10T14:10:17;9.85;;;8.90;;
21192;SDS011;10754;51.106;7.164;2023-05-10T14:12:42;9.55;;;8.75;;
21192;SDS011;10754;51.106;7.164;2023-05-10T14:15:08;8.52;;;7.72;;
21192;SDS011;10754;51.106;7.164;2023-05-10T14:17:35;8.82;;;8.02;;
21192;SDS011;10754;51.106;7.164;2023-05-10T14:20:00;9.18;;;8.38;;
21192;SDS011;10754;51.106;7.164;2023-05-10T14:22:27;9.65;;;8.75;;
21192;SDS011;10754;51.106;7.164;2023-05-10T14:24:52;9.45;;;8.65;;
21192;SDS011;10754;51.106;7.164;2023-05-10T14:27:17;9.32;;;8.48;;
21192;SDS011;10754;51.106;7.164;2023-05-10T14:29:43;7.97;;;7.28;;
21192;SDS011;10754;51.106;7.164;2023-05-10T14:32:09;8.57;;;7.88;;
21192;SDS011;10754;51.106;7.164;2023-05-10T14:34:34;8.57;;;7.65;;
21192;SDS011;10754;51.106;7.164;2023-05-10T14:37:00;7.65;;;6.95;;
21192;SDS011;10754;51.106;7.164;2023-05-10T14:39:26;7.05;;;6.35;;
21192;SDS011;10754;51.106;7.164;2023-05-10T14:41:54;7.45;;;6.78;;
21192;SDS011;10754;51.106;7.164;2023-05-10T14:44:20;8.00;;;7.35;;
21192;SDS011;10754;51.106;7.164;2023-05-10T14:46:45;8.45;;;7.20;;
21192;SDS011;10754;51.106;7.164;2023-05-10T14:49:11;8.10;;;7.30;;
21192;SDS011;10754;51.106;7.164;2023-05-10T14:51:36;8.57;;;7.78;;
21192;SDS011;10754;51.106;7.164;2023-05-10T14:54:02;10.00;;;9.10;;
21192;SDS011;10754;51.106;7.164;2023-05-10T14:56:27;9.98;;;9.18;;
21192;SDS011;10754;51.106;7.164;2023-05-10T14:58:53;9.68;;;8.77;;
21192;SDS011;10754;51.106;7.164;2023-05-10T15:01:18;10.45;;;9.43;;
21192;SDS011;10754;51.106;7.164;2023-05-10T15:03:44;9.48;;;8.68;;
21192;SDS011;10754;51.106;7.164;2023-05-10T15:06:10;9.05;;;8.15;;